Time;durP1;ratioP1;P1;durP2;ratioP2;P2;SDS_P1;SDS_P2;PMS_P1;PMS_P2;Temp;Humidity;BMP_temperature;BMP_pressure;BME280_temperature;BME280_humidity;BME280_pressure;Samples;Min_cycle;Max_cycle;Signal;HPM_P1;HPM_P2
2023/03/24 00:01:02;;;;;;;1.60;1.50;;;17.70;55.90;17.80;95825.00;;;;5094713;28;20192;-79
2023/03/24 00:03:31;;;;;;;2.10;1.70;;;17.60;56.00;17.80;95828.00;;;;5072828;28;20656;-78
2023/03/24 00:06:01;;;;;;;1.70;1.60;;;17.60;56.00;17.80;95821.00;;;;5072637;28;20192;-79
2023/03/24 00:08:33;;;;;;;1.57;1.47;;;17.60;56.00;17.80;95822.00;;;;5083742;28;20192;-79
2023/03/24 00:11:05;;;;;;;1.93;1.77;;;17.60;56.10;17.80;95810.00;;;;5080559;28;20204;-78
2023/03/24 00:13:36;;;;;;;1.50;1.40;;;17.60;56.10;17.80;95805.00;;;;5056452;28;20226;-80
2023/03/24 00:16:05;;;;;;;3.20;2.00;;;17.60;56.10;17.80;95798.00;;;;5072801;28;20184;-80
2023/03/24 00:18:33;;;;;;;1.73;1.63;;;17.50;56.10;17.70;95790.00;;;;5073255;28;20200;-79
2023/03/24 00:21:00;;;;;;;1.50;1.40;;;17.50;56.10;17.70;95792.00;;;;5065386;28;20721;-79
2023/03/24 00:23:31;;;;;;;1.57;1.47;;;17.50;56.10;17.70;95782.00;;;;5076912;28;20226;-80
2023/03/24 00:26:07;;;;;;;2.30;1.63;;;17.50;56.20;17.70;95781.00;;;;5087292;28;20378;-78
2023/03/24 00:28:37;;;;;;;2.73;1.73;;;17.50;56.30;17.60;95776.00;;;;5076755;28;20282;-79
2023/03/24 00:31:08;;;;;;;2.57;1.80;;;17.50;56.20;17.60;95771.00;;;;5091771;28;20599;-79
2023/03/24 00:33:36;;;;;;;2.20;1.47;;;17.50;56.20;17.60;95769.00;;;;5083862;28;20192;-78
2023/03/24 00:36:10;;;;;;;1.60;1.50;;;17.40;56.20;17.60;95762.00;;;;5075742;28;20689;-79
2023/03/24 00:38:40;;;;;;;1.87;1.77;;;17.40;56.30;17.60;95758.00;;;;5084313;28;20195;-79
2023/03/24 00:41:10;;;;;;;1.80;1.70;;;17.40;56.20;17.60;95753.00;;;;5090120;28;20282;-80
2023/03/24 00:43:38;;;;;;;1.50;1.40;;;17.40;56.20;17.60;95756.00;;;;5088354;28;20263;-79
2023/03/24 00:46:09;;;;;;;1.80;1.70;;;17.40;56.30;17.60;95760.00;;;;5080734;28;20200;-79
2023/03/24 00:48:40;;;;;;;1.80;1.70;;;17.40;56.50;17.60;95764.00;;;;5086639;28;20210;-79
2023/03/24 00:51:09;;;;;;;1.70;1.53;;;17.30;56.50;17.60;95764.00;;;;5090190;28;20272;-79
2023/03/24 00:53:42;;;;;;;1.50;1.40;;;17.30;56.60;17.50;95752.00;;;;5090958;28;20192;-80
2023/03/24 00:56:14;;;;;;;1.60;1.50;;;17.30;56.50;17.50;95757.00;;;;5093777;28;20576;-80
2023/03/24 00:58:42;;;;;;;1.77;1.40;;;17.30;56.60;17.50;95757.00;;;;5091127;28;20231;-78
2023/03/24 01:01:09;;;;;;;2.70;1.60;;;17.30;56.70;17.50;95761.00;;;;5083890;28;20199;-80
2023/03/24 01:03:47;;;;;;;1.70;1.60;;;17.30;56.80;17.50;95761.00;;;;5091411;28;20203;-79
2023/03/24 01:06:14;;;;;;;1.50;1.40;;;17.20;56.70;17.40;95764.00;;;;5077207;28;20199;-79
2023/03/24 01:08:42;;;;;;;1.60;1.50;;;17.20;56.70;17.40;95749.00;;;;5077233;28;20281;-79
2023/03/24 01:11:11;;;;;;;1.33;1.23;;;17.20;56.70;17.30;95755.00;;;;5089445;28;20238;-79
2023/03/24 01:13:40;;;;;;;1.53;1.43;;;17.20;56.80;17.30;95762.00;;;;5105453;28;20187;-80
2023/03/24 01:16:09;;;;;;;1.60;1.50;;;17.10;56.70;17.30;95759.00;;;;5084032;28;20208;-79
2023/03/24 01:18:39;;;;;;;1.40;1.30;;;17.10;56.70;17.20;95760.00;;;;5082566;28;20257;-80
2023/03/24 01:21:09;;;;;;;1.40;1.30;;;17.00;56.70;17.20;95757.00;;;;5085767;28;20192;-80
2023/03/24 01:23:40;;;;;;;1.80;1.40;;;17.00;56.80;17.10;95752.00;;;;5077002;28;20224;-79
2023/03/24 01:26:11;;;;;;;1.60;1.50;;;17.00;56.90;17.10;95771.00;;;;5092667;28;20221;-79
2023/03/24 01:28:42;;;;;;;1.63;1.53;;;16.90;57.00;17.10;95765.00;;;;5073251;28;20208;-80
2023/03/24 01:31:13;;;;;;;1.73;1.63;;;16.90;57.00;17.00;95757.00;;;;5088343;28;20748;-79
2023/03/24 01:33:40;;;;;;;1.70;1.60;;;16.90;57.00;17.00;95762.00;;;;5074962;28;20196;-78
2023/03/24 01:36:09;;;;;;;1.60;1.50;;;16.80;57.00;17.00;95749.00;;;;5073111;28;20609;-79
2023/03/24 01:38:37;;;;;;;1.50;1.40;;;16.80;57.10;17.00;95745.00;;;;5078862;28;20266;-79
2023/03/24 01:41:12;;;;;;;1.63;1.40;;;16.70;57.00;16.90;95743.00;;;;5081189;28;20227;-80
2023/03/24 01:43:39;;;;;;;1.53;1.43;;;16.80;57.30;16.90;95738.00;;;;5085960;28;20272;-78
2023/03/24 01:46:19;;;;;;;1.60;1.50;;;16.70;57.20;16.90;95735.00;;;;5083302;28;20649;-80
2023/03/24 01:48:54;;;;;;;2.53;1.70;;;16.70;57.50;16.80;95731.00;;;;5076781;28;20235;-80
2023/03/24 01:51:27;;;;;;;1.67;1.57;;;16.70;57.40;16.80;95726.00;;;;5087155;28;20958;-80
2023/03/24 01:54:02;;;;;;;1.60;1.50;;;16.60;57.40;16.80;95732.00;;;;5090022;28;20196;-81
2023/03/24 01:56:36;;;;;;;1.90;1.63;;;16.60;57.50;16.80;95731.00;;;;5084862;28;20198;-82
2023/03/24 01:59:09;;;;;;;1.73;1.63;;;16.60;57.60;16.80;95728.00;;;;5077154;28;20283;-80
2023/03/24 02:01:38;;;;;;;1.80;1.53;;;16.60;57.70;16.80;95730.00;;;;5077600;28;20754;-79
2023/03/24 02:04:08;;;;;;;1.70;1.60;;;16.60;57.80;16.80;95744.00;;;;5091888;28;20245;-80
2023/03/24 02:06:42;;;;;;;1.70;1.60;;;16.60;58.10;16.80;95740.00;;;;5077413;28;20257;-80
2023/03/24 02:09:12;;;;;;;2.00;1.80;;;16.60;58.20;16.80;95725.00;;;;5087316;28;20210;-80
2023/03/24 02:11:42;;;;;;;2.13;1.80;;;16.60;58.00;16.80;95716.00;;;;5086098;28;20211;-80
2023/03/24 02:14:12;;;;;;;1.80;1.70;;;16.60;58.00;16.80;95729.00;;;;5066614;28;20237;-80
2023/03/24 02:17:16;;;;;;;1.50;1.40;;;16.60;57.90;16.80;95760.00;;;;5097980;28;20225;-79
2023/03/24 02:20:26;;;;;;;1.80;1.60;;;16.60;58.30;16.80;95758.00;;;;5078289;28;20593;-80
2023/03/24 02:24:05;;;;;;;2.80;1.90;;;16.60;58.30;16.80;95759.00;;;;5090769;28;20663;-80
2023/03/24 02:27:12;;;;;;;1.63;1.53;;;16.60;58.50;16.80;95761.00;;;;5079297;28;20203;-79
2023/03/24 02:30:23;;;;;;;1.67;1.57;;;16.60;58.80;16.80;95747.00;;;;5078240;28;20296;-80
2023/03/24 02:33:32;;;;;;;2.10;1.90;;;16.60;59.20;16.80;95751.00;;;;5076731;28;20227;-79
2023/03/24 02:36:43;;;;;;;1.97;1.87;;;16.60;59.30;16.80;95747.00;;;;5069333;28;20215;-79
2023/03/24 02:39:50;;;;;;;1.80;1.50;;;16.60;59.90;16.80;95741.00;;;;5080246;28;20298;-79
2023/03/24 02:42:34;;;;;;;1.60;1.50;;;16.60;60.10;16.80;95738.00;;;;5086721;28;20199;-79
2023/03/24 02:45:15;;;;;;;1.67;1.57;;;16.60;60.00;16.80;95739.00;;;;5078934;28;20205;-79
2023/03/24 02:47:57;;;;;;;1.70;1.60;;;16.60;60.40;16.80;95731.00;;;;5085107;28;20639;-80
2023/03/24 02:50:32;;;;;;;1.93;1.83;;;16.60;60.40;16.80;95730.00;;;;5084369;28;20600;-79
2023/03/24 02:53:10;;;;;;;1.67;1.50;;;16.60;60.40;16.80;95729.00;;;;5086115;28;20239;-79
2023/03/24 02:55:46;;;;;;;2.07;1.70;;;16.60;60.50;16.80;95734.00;;;;5058601;28;20208;-79
2023/03/24 02:58:22;;;;;;;1.73;1.63;;;16.60;60.90;16.80;95725.00;;;;5092052;28;20198;-79
2023/03/24 03:01:01;;;;;;;1.60;1.50;;;16.60;61.20;16.80;95728.00;;;;5088680;28;20237;-80
2023/03/24 03:03:37;;;;;;;1.83;1.73;;;16.60;61.30;16.80;95717.00;;;;5095017;28;20215;-80
2023/03/24 03:06:14;;;;;;;1.93;1.83;;;16.60;61.50;16.80;95726.00;;;;5089077;28;20199;-80
2023/03/24 03:08:42;;;;;;;1.90;1.80;;;16.60;61.70;16.90;95717.00;;;;5075188;28;20231;-79
2023/03/24 03:11:16;;;;;;;2.30;1.80;;;16.60;61.50;16.90;95725.00;;;;5074684;28;20269;-79
2023/03/24 03:13:50;;;;;;;2.27;2.07;;;16.60;61.80;16.90;95721.00;;;;5076461;28;20670;-79
2023/03/24 03:16:24;;;;;;;4.17;1.83;;;16.60;62.10;16.90;95721.00;;;;5080652;28;20257;-80
2023/03/24 03:18:56;;;;;;;1.80;1.50;;;16.60;62.40;16.90;95708.00;;;;5078990;28;20217;-79
2023/03/24 03:21:27;;;;;;;1.70;1.60;;;16.60;62.10;16.90;95700.00;;;;5091613;28;20195;-79
2023/03/24 03:24:02;;;;;;;2.13;1.60;;;16.60;61.50;16.80;95691.00;;;;5074404;28;20199;-79
2023/03/24 03:26:34;;;;;;;2.00;1.90;;;16.60;62.20;16.80;95679.00;;;;5087487;28;20603;-80
2023/03/24 03:29:09;;;;;;;3.37;1.83;;;16.60;61.60;16.80;95676.00;;;;5079542;28;20285;-79
2023/03/24 03:31:49;;;;;;;1.80;1.70;;;16.60;61.40;16.70;95682.00;;;;5085171;28;20231;-79
2023/03/24 03:34:29;;;;;;;1.87;1.70;;;16.50;61.50;16.70;95678.00;;;;5080607;28;20289;-79
2023/03/24 03:37:05;;;;;;;1.73;1.63;;;16.50;61.90;16.70;95667.00;;;;5074716;28;20196;-80
2023/03/24 03:39:38;;;;;;;1.90;1.80;;;16.50;62.10;16.70;95677.00;;;;5083673;28;20288;-79
2023/03/24 03:42:08;;;;;;;2.57;2.23;;;16.50;62.10;16.70;95666.00;;;;5076283;28;20192;-79
2023/03/24 03:44:36;;;;;;;2.40;2.20;;;16.50;61.90;16.70;95658.00;;;;5089234;28;20214;-79
2023/03/24 03:47:03;;;;;;;2.70;2.50;;;16.50;62.40;16.70;95648.00;;;;5084005;28;20623;-79
2023/03/24 03:49:32;;;;;;;2.40;2.20;;;16.50;61.60;16.70;95653.00;;;;5086359;28;20700;-80
2023/03/24 03:51:59;;;;;;;2.50;2.30;;;16.40;61.40;16.70;95645.00;;;;5072915;28;20227;-80
2023/03/24 03:54:33;;;;;;;2.97;2.60;;;16.50;61.40;16.60;95645.00;;;;5085848;28;20244;-79
2023/03/24 03:57:01;;;;;;;2.37;2.00;;;16.40;61.50;16.60;95639.00;;;;5080879;28;20253;-80
2023/03/24 03:59:34;;;;;;;2.30;2.20;;;16.40;61.40;16.60;95628.00;;;;5071171;28;20314;-80
2023/03/24 04:02:18;;;;;;;2.00;1.90;;;16.40;61.70;16.60;95634.00;;;;5087682;28;20198;-80
2023/03/24 04:05:17;;;;;;;2.40;2.20;;;16.40;61.60;16.60;95621.00;;;;5077868;28;20226;-80
2023/03/24 04:08:09;;;;;;;2.33;2.13;;;16.40;62.00;16.60;95621.00;;;;5076308;28;20253;-79
2023/03/24 04:11:11;;;;;;;1.83;1.73;;;16.40;61.80;16.50;95609.00;;;;5081706;28;20321;-78
2023/03/24 04:13:51;;;;;;;1.90;1.80;;;16.40;62.00;16.50;95608.00;;;;5073233;28;20227;-80
2023/03/24 04:16:32;;;;;;;1.70;1.60;;;16.40;61.70;16.50;95616.00;;;;5088490;28;20202;-80
2023/03/24 04:19:22;;;;;;;2.20;2.00;;;16.30;61.70;16.50;95607.00;;;;5083543;28;20699;-79
2023/03/24 04:22:07;;;;;;;1.93;1.73;;;16.30;62.00;16.50;95608.00;;;;5075173;28;20196;-81
2023/03/24 04:24:49;;;;;;;1.90;1.80;;;16.30;61.80;16.40;95609.00;;;;5079066;28;20192;-79
2023/03/24 04:27:37;;;;;;;2.30;2.10;;;16.30;61.90;16.40;95601.00;;;;5095320;28;20195;-80
2023/03/24 04:30:15;;;;;;;1.47;1.37;;;16.30;61.90;16.40;95601.00;;;;5098532;28;20219;-80
2023/03/24 04:32:49;;;;;;;1.87;1.77;;;16.30;62.00;16.40;95595.00;;;;5102669;28;20278;-80
2023/03/24 04:35:30;;;;;;;1.77;1.67;;;16.20;62.00;16.40;95598.00;;;;5097711;28;20198;-80
2023/03/24 04:38:02;;;;;;;2.70;1.90;;;16.20;62.10;16.40;95590.00;;;;5090980;28;20191;-81
2023/03/24 04:40:35;;;;;;;2.10;2.00;;;16.20;62.10;16.30;95602.00;;;;5083688;28;20261;-79
2023/03/24 04:43:07;;;;;;;2.33;2.13;;;16.10;62.50;16.30;95601.00;;;;5090335;28;20226;-80
2023/03/24 04:45:35;;;;;;;1.77;1.67;;;16.10;62.10;16.30;95591.00;;;;5071617;28;20192;-78
2023/03/24 04:48:09;;;;;;;1.83;1.73;;;16.10;62.00;16.20;95595.00;;;;5084836;28;20222;-80
2023/03/24 04:50:39;;;;;;;2.00;1.90;;;16.10;62.30;16.20;95598.00;;;;5086703;28;20298;-80
2023/03/24 04:53:08;;;;;;;1.97;1.87;;;16.00;62.20;16.20;95593.00;;;;5092791;28;20221;-78
2023/03/24 04:55:57;;;;;;;2.23;1.80;;;16.00;62.30;16.20;95586.00;;;;5093767;28;20291;-80
2023/03/24 04:58:25;;;;;;;1.97;1.87;;;16.00;62.90;16.20;95586.00;;;;5075164;28;20250;-80
2023/03/24 05:00:54;;;;;;;1.97;1.77;;;16.00;62.60;16.10;95583.00;;;;5072355;28;20258;-79
2023/03/24 05:03:24;;;;;;;2.80;2.03;;;16.00;62.90;16.20;95588.00;;;;5084009;28;20202;-79
2023/03/24 05:05:53;;;;;;;2.33;1.80;;;16.00;63.00;16.20;95591.00;;;;5091218;28;20257;-79
2023/03/24 05:08:21;;;;;;;2.10;2.00;;;15.90;63.00;16.20;95597.00;;;;5084263;28;20230;-78
2023/03/24 05:10:48;;;;;;;2.17;1.97;;;15.90;63.00;16.20;95593.00;;;;5084946;28;20219;-79
2023/03/24 05:13:16;;;;;;;3.30;2.70;;;15.90;63.20;16.10;95604.00;;;;5091628;28;20310;-78
2023/03/24 05:15:44;;;;;;;2.10;2.00;;;15.90;63.10;16.10;95596.00;;;;5086027;28;20202;-79
2023/03/24 05:18:11;;;;;;;2.53;2.33;;;15.90;63.20;16.10;95624.00;;;;5083513;28;20226;-79
2023/03/24 05:20:40;;;;;;;2.37;2.17;;;15.90;63.40;16.10;95630.00;;;;5083512;28;20742;-78
2023/03/24 05:23:07;;;;;;;2.77;2.17;;;15.90;63.50;16.10;95637.00;;;;5087524;28;20203;-79
2023/03/24 05:25:35;;;;;;;2.87;2.23;;;15.90;63.40;16.10;95632.00;;;;5075925;28;20275;-80
2023/03/24 05:28:03;;;;;;;3.50;2.30;;;15.90;63.20;16.10;95640.00;;;;5086987;28;20346;-79
2023/03/24 05:30:30;;;;;;;2.63;2.03;;;15.90;63.20;16.10;95626.00;;;;5085069;28;20294;-79
2023/03/24 05:33:00;;;;;;;2.17;1.97;;;15.90;63.20;16.10;95638.00;;;;5090868;28;20314;-81
2023/03/24 05:35:27;;;;;;;2.70;2.50;;;15.90;63.20;16.10;95628.00;;;;5095712;28;20227;-81
2023/03/24 05:37:56;;;;;;;1.93;1.83;;;15.90;63.30;16.20;95643.00;;;;5093994;28;20221;-79
2023/03/24 05:40:24;;;;;;;2.63;2.40;;;15.90;63.50;16.20;95650.00;;;;5089961;28;20648;-80
2023/03/24 05:42:52;;;;;;;2.47;2.27;;;15.90;63.50;16.30;95651.00;;;;5087035;28;20810;-80
2023/03/24 05:45:19;;;;;;;4.77;2.20;;;15.90;63.50;16.30;95675.00;;;;5086296;28;20286;-80
2023/03/24 05:47:47;;;;;;;2.30;1.90;;;16.00;63.20;16.30;95670.00;;;;5093586;28;20226;-80
2023/03/24 05:50:14;;;;;;;2.30;2.10;;;16.00;63.40;16.40;95682.00;;;;5091607;28;20216;-80
2023/03/24 05:52:42;;;;;;;2.57;2.37;;;16.00;63.40;16.40;95683.00;;;;5086961;27;20258;-80
2023/03/24 05:55:11;;;;;;;2.77;2.40;;;16.10;63.70;16.50;95686.00;;;;5094499;28;20203;-79
2023/03/24 05:57:39;;;;;;;2.30;2.10;;;16.10;64.10;16.50;95687.00;;;;5084683;28;20231;-80
2023/03/24 06:00:16;;;;;;;2.10;2.00;;;16.10;64.20;16.50;95686.00;;;;5092564;28;20234;-80
2023/03/24 06:02:46;;;;;;;2.43;2.23;;;16.10;64.30;16.60;95664.00;;;;5097157;28;20699;-81
2023/03/24 06:05:14;;;;;;;2.43;2.23;;;16.20;64.10;16.60;95663.00;;;;5083471;28;20230;-81
2023/03/24 06:07:42;;;;;;;2.33;2.13;;;16.20;64.20;16.60;95656.00;;;;5082148;28;20257;-80
2023/03/24 06:10:13;;;;;;;2.17;1.97;;;16.20;64.70;16.60;95664.00;;;;5084869;28;20216;-80
2023/03/24 06:12:42;;;;;;;2.23;2.13;;;16.20;65.00;16.60;95668.00;;;;5090112;28;20317;-80
2023/03/24 06:15:16;;;;;;;4.50;2.27;;;16.20;65.30;16.60;95676.00;;;;5098132;28;20195;-81
2023/03/24 06:17:46;;;;;;;1.93;1.80;;;16.20;65.70;16.60;95675.00;;;;5092500;28;20219;-81
2023/03/24 06:20:17;;;;;;;1.90;1.70;;;16.20;65.50;16.60;95668.00;;;;5098549;28;20310;-83
2023/03/24 06:22:47;;;;;;;2.33;2.13;;;16.20;65.30;16.60;95644.00;;;;5089541;28;20210;-81
2023/03/24 06:25:19;;;;;;;2.77;2.37;;;16.20;65.20;16.60;95622.00;;;;5093262;28;20259;-82
2023/03/24 06:27:47;;;;;;;1.90;1.80;;;16.20;65.80;16.50;95611.00;;;;5086750;28;20200;-81
2023/03/24 06:30:17;;;;;;;2.57;2.37;;;16.20;66.10;16.50;95618.00;;;;5078910;28;20247;-80
2023/03/24 06:32:46;;;;;;;2.90;2.60;;;16.20;66.50;16.50;95624.00;;;;5098158;28;20381;-81
2023/03/24 06:35:15;;;;;;;2.87;2.33;;;16.20;66.40;16.50;95615.00;;;;5097337;28;20286;-81
2023/03/24 06:37:43;;;;;;;2.83;2.40;;;16.20;66.10;16.50;95614.00;;;;5084086;28;20199;-81
2023/03/24 06:40:14;;;;;;;2.57;2.23;;;16.20;66.30;16.50;95621.00;;;;5093084;28;20216;-81
2023/03/24 06:42:43;;;;;;;2.50;2.30;;;16.20;66.80;16.50;95612.00;;;;5079342;28;20191;-81
2023/03/24 06:45:11;;;;;;;2.50;2.30;;;16.10;67.30;16.50;95611.00;;;;5089877;28;20270;-80
2023/03/24 06:47:39;;;;;;;2.53;2.27;;;16.10;67.60;16.50;95607.00;;;;5093218;28;20671;-79
2023/03/24 06:50:09;;;;;;;2.83;2.43;;;16.10;67.60;16.50;95599.00;;;;5065939;28;20247;-80
2023/03/24 06:52:37;;;;;;;2.17;1.80;;;16.10;67.70;16.50;95593.00;;;;5091520;28;20246;-80
2023/03/24 06:55:07;;;;;;;3.17;2.57;;;16.10;67.90;16.60;95597.00;;;;5075796;28;20199;-81
2023/03/24 06:57:34;;;;;;;2.37;2.23;;;16.10;68.10;16.60;95611.00;;;;5080753;28;20189;-83
2023/03/24 07:00:04;;;;;;;2.50;2.30;;;16.10;68.30;16.60;95607.00;;;;5093024;28;20528;-82
2023/03/24 07:02:34;;;;;;;3.03;2.40;;;16.20;68.60;16.60;95612.00;;;;5097512;28;20199;-83
2023/03/24 07:05:04;;;;;;;2.87;2.47;;;16.20;68.20;16.60;95621.00;;;;5094757;28;20229;-83
2023/03/24 07:07:32;;;;;;;2.87;2.67;;;16.20;68.10;16.60;95619.00;;;;5100925;28;20251;-82
2023/03/24 07:10:00;;;;;;;2.97;2.77;;;16.20;68.20;16.60;95622.00;;;;5105617;28;20216;-82
2023/03/24 07:12:27;;;;;;;2.60;2.40;;;16.20;68.40;16.60;95623.00;;;;5102418;28;20226;-82
2023/03/24 07:14:55;;;;;;;3.47;2.80;;;16.20;68.50;16.70;95622.00;;;;5091397;28;20635;-82
2023/03/24 07:17:24;;;;;;;5.00;2.87;;;16.20;68.60;16.70;95615.00;;;;5094510;28;20207;-82
2023/03/24 07:19:51;;;;;;;2.70;2.40;;;16.30;68.60;16.70;95616.00;;;;5085184;28;20216;-81
2023/03/24 07:22:19;;;;;;;4.73;2.87;;;16.30;68.90;16.70;95616.00;;;;5087361;28;20302;-81
2023/03/24 07:24:46;;;;;;;2.93;2.73;;;16.30;69.00;16.70;95630.00;;;;5088045;28;20211;-81
2023/03/24 07:27:13;;;;;;;3.40;2.20;;;16.30;69.10;16.80;95639.00;;;;5083480;28;20596;-81
2023/03/24 07:29:41;;;;;;;2.97;2.43;;;16.40;69.40;16.80;95641.00;;;;5095241;28;20711;-80
2023/03/24 07:32:09;;;;;;;3.27;2.97;;;16.40;69.60;16.80;95652.00;;;;5084572;28;20223;-81
2023/03/24 07:34:38;;;;;;;3.00;2.80;;;16.40;69.60;16.80;95647.00;;;;5085402;28;20311;-84
2023/03/24 07:37:05;;;;;;;2.73;2.53;;;16.40;69.80;16.90;95643.00;;;;5084262;28;20283;-83
2023/03/24 07:39:33;;;;;;;2.97;2.70;;;16.50;69.90;17.00;95638.00;;;;5093370;28;20221;-82
2023/03/24 07:42:00;;;;;;;2.83;2.63;;;16.50;69.80;17.00;95645.00;;;;5096636;28;20195;-82
2023/03/24 07:44:28;;;;;;;3.10;2.90;;;16.50;69.40;17.00;95666.00;;;;5083234;28;20191;-81
2023/03/24 07:46:55;;;;;;;3.23;3.03;;;16.60;69.60;17.00;95670.00;;;;5076009;28;20585;-83
2023/03/24 07:49:22;;;;;;;3.27;2.77;;;16.60;69.90;17.00;95701.00;;;;5083083;28;20294;-82
2023/03/24 07:51:51;;;;;;;3.27;2.67;;;16.60;69.70;17.00;95720.00;;;;5092770;28;20223;-82
2023/03/24 07:54:20;;;;;;;3.00;2.80;;;16.60;69.70;17.10;95717.00;;;;5091899;28;20318;-81
2023/03/24 07:56:50;;;;;;;3.53;3.33;;;16.60;69.70;17.10;95721.00;;;;5093209;28;20290;-83
2023/03/24 07:59:18;;;;;;;3.43;3.20;;;16.70;70.20;17.10;95719.00;;;;5095310;28;20221;-82
2023/03/24 08:01:45;;;;;;;3.30;3.00;;;16.70;70.00;17.10;95709.00;;;;5092482;28;20290;-82
2023/03/24 08:04:13;;;;;;;2.90;2.70;;;16.70;70.10;17.10;95710.00;;;;5084761;28;20238;-83
2023/03/24 08:06:43;;;;;;;3.37;2.80;;;16.70;69.90;17.10;95720.00;;;;5084812;28;21411;-83
2023/03/24 08:09:13;;;;;;;3.03;2.83;;;16.70;70.60;17.10;95729.00;;;;5085951;28;20212;-84
2023/03/24 08:11:41;;;;;;;3.50;2.97;;;16.70;70.00;17.10;95734.00;;;;5087880;28;20199;-83
2023/03/24 08:14:09;;;;;;;2.80;2.60;;;16.70;70.10;17.10;95729.00;;;;5076789;28;20235;-82
2023/03/24 08:16:38;;;;;;;3.83;2.80;;;16.70;70.20;17.10;95733.00;;;;5074763;28;20358;-83
2023/03/24 08:19:09;;;;;;;2.83;2.57;;;16.70;70.20;17.10;95732.00;;;;5080999;28;20318;-83
2023/03/24 08:21:38;;;;;;;4.10;2.60;;;16.80;70.80;17.10;95732.00;;;;5075853;28;20189;-82
2023/03/24 08:24:06;;;;;;;3.00;2.67;;;16.80;70.80;17.10;95733.00;;;;5086418;28;20222;-82
2023/03/24 08:26:35;;;;;;;2.67;2.47;;;16.80;70.80;17.10;95733.00;;;;5093823;28;20192;-81
2023/03/24 08:29:03;;;;;;;3.30;3.00;;;16.80;70.80;17.10;95731.00;;;;5078911;28;20307;-82
2023/03/24 08:31:33;;;;;;;2.90;2.60;;;16.80;70.80;17.20;95739.00;;;;5083137;28;20194;-80
2023/03/24 08:34:00;;;;;;;3.10;2.90;;;16.80;70.70;17.10;95731.00;;;;5089641;28;20666;-82
2023/03/24 08:36:27;;;;;;;3.10;2.80;;;16.80;70.50;17.10;95724.00;;;;5087970;28;20674;-84
2023/03/24 08:38:56;;;;;;;2.77;2.57;;;16.80;70.40;17.10;95726.00;;;;5085144;28;20261;-81
2023/03/24 08:41:33;;;;;;;2.53;2.33;;;16.80;70.80;17.10;95729.00;;;;5091916;28;20287;-81
2023/03/24 08:44:03;;;;;;;2.10;2.00;;;16.80;71.10;17.00;95704.00;;;;5084781;28;20203;-81
2023/03/24 08:46:32;;;;;;;2.53;2.33;;;16.80;71.40;17.10;95706.00;;;;5085334;28;20200;-82
2023/03/24 08:49:00;;;;;;;3.00;2.20;;;16.80;71.60;17.10;95727.00;;;;5077663;28;20783;-83
2023/03/24 08:51:27;;;;;;;2.17;2.07;;;16.80;71.90;17.10;95742.00;;;;5085318;28;20207;-82
2023/03/24 08:53:55;;;;;;;2.80;2.60;;;16.80;71.90;17.10;95748.00;;;;5097193;27;20243;-82
2023/03/24 08:56:24;;;;;;;3.00;2.80;;;16.80;72.10;17.00;95743.00;;;;5085473;28;20671;-83
2023/03/24 08:58:52;;;;;;;4.20;2.90;;;16.80;72.30;17.00;95742.00;;;;5088862;28;20229;-82
2023/03/24 09:01:22;;;;;;;2.97;2.77;;;16.80;73.40;17.10;95751.00;;;;5097708;28;20195;-82
2023/03/24 09:03:50;;;;;;;3.57;3.27;;;16.80;73.10;17.10;95747.00;;;;5095363;28;20651;-82
2023/03/24 09:06:17;;;;;;;5.67;4.40;;;16.80;73.50;17.10;95742.00;;;;5090751;28;20818;-82
2023/03/24 09:08:45;;;;;;;4.00;3.70;;;16.80;73.80;17.10;95755.00;;;;5102145;28;20284;-82
2023/03/24 09:11:18;;;;;;;3.40;2.93;;;16.80;74.00;17.10;95759.00;;;;5097172;28;20601;-82
2023/03/24 09:13:46;;;;;;;2.97;2.67;;;16.80;74.30;17.20;95759.00;;;;5090847;28;20367;-82
2023/03/24 09:16:13;;;;;;;2.30;2.10;;;16.80;74.20;17.20;95758.00;;;;5082897;28;20651;-82
2023/03/24 09:18:42;;;;;;;2.50;2.30;;;16.80;73.90;17.20;95751.00;;;;5102424;28;20199;-82
2023/03/24 09:21:10;;;;;;;2.40;2.20;;;16.80;74.00;17.20;95758.00;;;;5103864;28;20222;-81
2023/03/24 09:23:38;;;;;;;2.33;2.17;;;16.80;74.80;17.30;95754.00;;;;5104194;28;20284;-81
2023/03/24 09:26:07;;;;;;;3.33;2.60;;;16.90;74.30;17.30;95760.00;;;;5092908;28;20191;-82
2023/03/24 09:28:34;;;;;;;2.23;2.10;;;16.90;74.50;17.30;95774.00;;;;5090830;28;20212;-82
2023/03/24 09:31:05;;;;;;;2.47;2.27;;;16.90;74.80;17.40;95768.00;;;;5099258;28;20191;-81
2023/03/24 09:33:34;;;;;;;2.40;2.20;;;16.90;74.90;17.40;95775.00;;;;5095415;28;20246;-81
2023/03/24 09:36:05;;;;;;;2.80;2.50;;;17.00;75.20;17.50;95768.00;;;;5112794;28;20191;-82
2023/03/24 09:38:33;;;;;;;3.10;2.20;;;17.00;75.50;17.50;95771.00;;;;5102048;28;20429;-83
2023/03/24 09:41:03;;;;;;;2.40;2.20;;;17.10;75.20;17.50;95769.00;;;;5093145;28;20192;-82
2023/03/24 09:43:42;;;;;;;2.10;2.00;;;17.10;74.90;17.50;95762.00;;;;5097061;28;20225;-83
2023/03/24 09:46:20;;;;;;;2.60;2.13;;;17.10;75.00;17.50;95772.00;;;;5102671;28;20203;-83
2023/03/24 09:48:53;;;;;;;1.73;1.63;;;17.10;74.50;17.50;95784.00;;;;5096709;28;20263;-83
2023/03/24 09:51:25;;;;;;;1.67;1.57;;;17.10;74.20;17.40;95778.00;;;;5090959;28;20202;-83
2023/03/24 09:54:06;;;;;;;1.70;1.60;;;17.10;74.10;17.40;95787.00;;;;5090756;28;20220;-82
2023/03/24 09:56:37;;;;;;;2.07;1.30;;;17.10;74.30;17.40;95791.00;;;;5092227;28;20285;-83
2023/03/24 09:59:12;;;;;;;1.60;1.50;;;17.10;74.00;17.30;95788.00;;;;5090375;28;20282;-82
2023/03/24 10:01:39;;;;;;;2.13;1.70;;;17.10;74.00;17.30;95800.00;;;;5086566;28;20349;-83
2023/03/24 10:04:16;;;;;;;1.50;1.40;;;17.10;74.00;17.30;95803.00;;;;5096298;28;20207;-81
2023/03/24 10:06:52;;;;;;;1.60;1.50;;;17.10;74.40;17.20;95807.00;;;;5100921;28;20652;-82
2023/03/24 10:09:27;;;;;;;2.00;1.60;;;17.10;74.10;17.20;95810.00;;;;5100079;28;20804;-82
2023/03/24 10:12:23;;;;;;;1.77;1.67;;;17.10;74.50;17.20;95805.00;;;;5091256;28;20204;-81
2023/03/24 10:15:05;;;;;;;1.57;1.37;;;17.10;75.00;17.30;95817.00;;;;5089127;28;20275;-81
2023/03/24 10:17:46;;;;;;;1.43;1.33;;;17.10;74.90;17.30;95814.00;;;;5089012;28;20195;-82
2023/03/24 10:20:32;;;;;;;1.53;1.43;;;17.10;74.80;17.30;95819.00;;;;5096077;28;20261;-81
2023/03/24 10:23:17;;;;;;;2.03;1.40;;;17.10;75.00;17.30;95816.00;;;;5081346;28;20291;-83
2023/03/24 10:25:54;;;;;;;1.40;1.30;;;17.10;74.90;17.40;95812.00;;;;5087855;28;20242;-83
2023/03/24 10:28:28;;;;;;;2.10;1.50;;;17.10;74.70;17.40;95808.00;;;;5088783;28;20203;-82
2023/03/24 10:31:03;;;;;;;1.53;1.40;;;17.10;74.60;17.40;95825.00;;;;5110230;28;20222;-81
2023/03/24 10:33:42;;;;;;;1.80;1.70;;;17.10;74.60;17.30;95822.00;;;;5118548;28;20197;-81
2023/03/24 10:36:14;;;;;;;1.27;1.17;;;17.10;74.60;17.30;95825.00;;;;5099867;28;20226;-82
2023/03/24 10:38:43;;;;;;;1.63;1.53;;;17.10;74.60;17.30;95822.00;;;;5097419;28;20251;-82
2023/03/24 10:41:19;;;;;;;1.30;1.20;;;17.10;74.50;17.30;95818.00;;;;5109568;28;20204;-81
2023/03/24 10:43:48;;;;;;;1.50;1.40;;;17.10;74.50;17.30;95828.00;;;;5101886;28;20199;-82
2023/03/24 10:46:21;;;;;;;1.50;1.40;;;17.10;74.30;17.30;95820.00;;;;5100287;28;20279;-83
2023/03/24 10:48:57;;;;;;;1.20;1.10;;;17.10;74.30;17.20;95821.00;;;;5112093;28;20266;-81
2023/03/24 10:51:33;;;;;;;1.23;1.20;;;17.10;74.30;17.30;95821.00;;;;5108914;28;20187;-82
2023/03/24 10:54:16;;;;;;;1.40;1.30;;;17.10;74.30;17.20;95820.00;;;;5090974;28;20300;-84
2023/03/24 10:56:45;;;;;;;1.47;1.40;;;17.10;74.50;17.30;95814.00;;;;5084492;28;20195;-84
2023/03/24 10:59:27;;;;;;;1.27;1.17;;;17.10;74.30;17.30;95808.00;;;;5086168;28;20713;-83
2023/03/24 11:02:20;;;;;;;1.70;1.60;;;17.10;75.00;17.40;95815.00;;;;5089192;28;20225;-82
2023/03/24 11:04:55;;;;;;;1.10;1.10;;;17.10;75.10;17.40;95808.00;;;;5072095;28;20227;-83
2023/03/24 11:07:25;;;;;;;1.10;1.00;;;17.10;74.50;17.40;95805.00;;;;5075059;28;20206;-81
2023/03/24 11:10:04;;;;;;;1.40;1.30;;;17.10;74.30;17.40;95803.00;;;;5089431;28;20275;-82
2023/03/24 11:12:35;;;;;;;1.47;1.30;;;17.20;74.70;17.40;95799.00;;;;5092796;28;20277;-80
2023/03/24 11:15:19;;;;;;;1.40;1.30;;;17.20;74.60;17.40;95800.00;;;;5084876;28;20215;-83
2023/03/24 11:17:52;;;;;;;1.17;1.17;;;17.20;74.90;17.50;95790.00;;;;5093600;28;20199;-82
2023/03/24 11:20:27;;;;;;;1.33;1.23;;;17.20;74.40;17.60;95799.00;;;;5078595;28;20234;-84